createdAt,value
2023-03-19T00:03:30.265Z,62.85
2023-03-19T00:05:58.326Z,67.25
2023-03-19T00:08:26.595Z,70.93
2023-03-19T00:10:55.148Z,61.50
2023-03-19T00:13:23.193Z,73.20
2023-03-19T00:18:37.016Z,69.45
2023-03-19T00:26:44.114Z,64.53
2023-03-19T00:29:13.053Z,64.28
2023-03-19T00:31:41.886Z,70.20
2023-03-19T00:34:10.138Z,77.28
2023-03-19T00:36:38.408Z,71.32
2023-03-19T00:39:06.797Z,72.03
2023-03-19T00:41:34.900Z,71.93
2023-03-19T00:44:04.012Z,75.50
2023-03-19T00:52:10.737Z,68.85
2023-03-19T00:54:38.760Z,68.82
2023-03-19T00:57:07.706Z,75.53
2023-03-19T00:59:36.653Z,70.22
2023-03-19T01:02:05.384Z,71.88
2023-03-19T01:04:33.510Z,72.18
2023-03-19T01:07:01.656Z,69.80
2023-03-19T01:09:29.814Z,69.18
2023-03-19T01:11:57.941Z,76.15
2023-03-19T01:14:26.300Z,69.90
2023-03-19T01:25:15.409Z,73.60
2023-03-19T01:30:41.098Z,73.57
2023-03-19T01:33:25.828Z,75.22
2023-03-19T01:36:06.284Z,74.47
2023-03-19T01:38:55.653Z,67.93
2023-03-19T01:41:28.090Z,74.17
2023-03-19T01:44:00.397Z,71.57
2023-03-19T01:49:33.102Z,75.10
2023-03-19T01:54:58.128Z,68.88
2023-03-19T02:00:29.791Z,74.32
2023-03-19T02:03:05.684Z,63.80
2023-03-19T02:11:12.266Z,69.05
2023-03-19T02:20:02.446Z,63.60
2023-03-19T02:22:32.337Z,68.07
2023-03-19T02:28:31.133Z,66.47
2023-03-19T02:34:29.949Z,68.18
2023-03-19T02:37:22.732Z,69.28
2023-03-19T02:40:13.098Z,68.30
2023-03-19T02:45:49.624Z,64.30
2023-03-19T02:57:01.593Z,64.60
2023-03-19T02:59:41.572Z,65.60
2023-03-19T03:02:21.836Z,65.47
2023-03-19T03:04:54.374Z,65.72
2023-03-19T03:07:25.250Z,64.50
2023-03-19T03:09:56.102Z,63.08
2023-03-19T03:23:29.138Z,64.38
2023-03-19T03:26:07.746Z,63.55
2023-03-19T03:28:40.368Z,69.13
2023-03-19T03:31:09.437Z,62.50
2023-03-19T03:33:52.958Z,63.83
2023-03-19T03:36:21.719Z,70.28
2023-03-19T03:38:58.933Z,62.47
2023-03-19T03:41:27.013Z,63.67
2023-03-19T03:44:10.538Z,65.80
2023-03-19T03:46:38.580Z,55.67
2023-03-19T03:49:06.794Z,59.00
2023-03-19T03:51:34.776Z,60.45
2023-03-19T03:54:06.261Z,61.35
2023-03-19T03:56:34.592Z,58.58
2023-03-19T03:59:02.715Z,62.55
2023-03-19T04:01:31.151Z,58.47
2023-03-19T04:03:59.939Z,57.75
2023-03-19T04:06:29.247Z,59.80
2023-03-19T04:08:58.108Z,54.58
2023-03-19T04:11:26.098Z,57.78
2023-03-19T04:14:01.264Z,56.92
2023-03-19T04:16:29.820Z,62.72
2023-03-19T04:18:58.080Z,62.33
2023-03-19T04:21:26.834Z,59.97
2023-03-19T04:23:54.833Z,60.25
2023-03-19T04:26:28.065Z,56.75
2023-03-19T04:28:56.272Z,59.60
2023-03-19T04:31:24.610Z,59.70
2023-03-19T04:33:52.755Z,57.85
2023-03-19T04:36:22.099Z,55.75
2023-03-19T04:38:55.922Z,61.10
2023-03-19T04:41:24.271Z,66.60
2023-03-19T04:44:15.054Z,55.83
2023-03-19T04:46:45.854Z,63.33
2023-03-19T04:49:14.532Z,63.05
2023-03-19T04:51:43.097Z,57.42
2023-03-19T04:54:11.753Z,52.05
2023-03-19T04:56:39.913Z,59.47
2023-03-19T04:59:08.193Z,71.55
2023-03-19T05:01:39.014Z,58.58
2023-03-19T05:04:09.941Z,54.28
2023-03-19T05:06:38.891Z,51.55
2023-03-19T05:09:08.797Z,39.45
2023-03-19T05:17:30.220Z,48.97
2023-03-19T05:19:58.176Z,50.38
2023-03-19T05:22:26.796Z,51.03
2023-03-19T05:24:54.925Z,46.55
2023-03-19T05:27:22.942Z,49.80
2023-03-19T05:29:50.861Z,46.97
2023-03-19T05:32:19.388Z,47.00
2023-03-19T05:34:48.228Z,49.40
2023-03-19T05:37:17.665Z,47.17
2023-03-19T05:39:45.905Z,46.83
2023-03-19T05:42:15.145Z,48.35
2023-03-19T05:44:43.503Z,51.05
2023-03-19T05:47:12.621Z,53.55
2023-03-19T05:49:41.285Z,53.03
2023-03-19T05:52:09.413Z,45.10
2023-03-19T06:00:34.397Z,47.83
2023-03-19T06:03:05.143Z,44.08
2023-03-19T06:05:35.728Z,45.80
2023-03-19T06:08:04.701Z,52.95
2023-03-19T06:10:35.113Z,49.17
2023-03-19T06:13:09.507Z,44.50
2023-03-19T06:15:39.845Z,44.13
2023-03-19T06:18:11.478Z,44.55
2023-03-19T06:20:39.713Z,46.08
2023-03-19T06:23:09.435Z,46.70
2023-03-19T06:28:06.591Z,42.80
2023-03-19T06:30:35.302Z,38.97
2023-03-19T06:33:06.026Z,46.28
2023-03-19T06:35:34.049Z,44.55
2023-03-19T06:38:02.005Z,44.83
2023-03-19T06:40:30.141Z,41.47
2023-03-19T06:42:58.592Z,44.63
2023-03-19T06:45:28.896Z,44.67
2023-03-19T06:47:57.491Z,40.80
2023-03-19T06:50:27.547Z,43.33
2023-03-19T06:52:55.867Z,36.83
2023-03-19T06:55:23.783Z,36.10
2023-03-19T06:57:52.513Z,42.22
2023-03-19T07:00:23.840Z,35.75
2023-03-19T07:02:52.159Z,40.22
2023-03-19T07:05:20.434Z,39.42
2023-03-19T07:07:50.064Z,39.47
2023-03-19T07:12:49.738Z,42.28
2023-03-19T07:15:18.060Z,45.80
2023-03-19T07:17:52.456Z,39.30
2023-03-19T07:20:20.998Z,38.63
2023-03-19T07:22:54.426Z,37.67
2023-03-19T07:25:25.876Z,40.20
2023-03-19T07:27:59.904Z,37.75
2023-03-19T07:30:28.549Z,35.63
2023-03-19T07:32:57.456Z,37.90
2023-03-19T07:35:27.307Z,36.83
2023-03-19T07:37:55.824Z,33.50
2023-03-19T07:40:23.767Z,41.63
2023-03-19T07:42:52.591Z,41.15
2023-03-19T07:45:27.226Z,38.25
2023-03-19T07:48:04.372Z,41.28
2023-03-19T07:50:42.175Z,42.95
2023-03-19T07:53:13.243Z,47.65
2023-03-19T07:55:41.339Z,39.47
2023-03-19T07:58:10.544Z,34.38
2023-03-19T08:00:41.792Z,34.42
2023-03-19T08:03:16.813Z,40.15
2023-03-19T08:05:46.967Z,33.58
2023-03-19T08:08:16.518Z,35.25
2023-03-19T08:10:44.612Z,39.42
2023-03-19T08:13:16.761Z,35.47
2023-03-19T08:15:45.118Z,35.10
2023-03-19T08:18:15.268Z,38.67
2023-03-19T08:20:50.454Z,36.45
2023-03-19T08:23:24.233Z,39.42
2023-03-19T08:26:04.588Z,34.80
2023-03-19T08:29:38.627Z,38.50
2023-03-19T08:31:29.593Z,39.08
2023-03-19T08:34:13.042Z,43.10
2023-03-19T08:36:50.846Z,39.80
2023-03-19T08:39:27.247Z,45.58
2023-03-19T08:41:55.946Z,46.58
2023-03-19T08:44:25.708Z,40.47
2023-03-19T08:49:22.044Z,46.30
2023-03-19T08:51:51.614Z,36.10
2023-03-19T08:54:23.060Z,34.10
2023-03-19T08:59:38.007Z,32.67
2023-03-19T09:02:08.062Z,37.97
2023-03-19T09:04:39.300Z,38.47
2023-03-19T09:07:07.448Z,34.10
2023-03-19T09:09:35.656Z,36.50
2023-03-19T09:12:03.708Z,33.80
2023-03-19T09:14:34.717Z,41.65
2023-03-19T09:17:07.003Z,40.92
2023-03-19T09:19:36.640Z,43.72
2023-03-19T09:22:05.831Z,38.53
2023-03-19T09:24:34.043Z,36.38
2023-03-19T09:27:03.026Z,33.67
2023-03-19T09:29:31.296Z,34.33
2023-03-19T09:32:01.631Z,38.63
2023-03-19T09:34:30.005Z,35.50
2023-03-19T09:36:58.019Z,34.28
2023-03-19T09:39:26.604Z,35.83
2023-03-19T09:42:10.102Z,35.70
2023-03-19T09:44:45.684Z,35.95
2023-03-19T09:47:28.256Z,36.55
2023-03-19T09:50:09.408Z,35.50
2023-03-19T09:53:06.801Z,48.58
2023-03-19T09:55:54.390Z,47.72
2023-03-19T09:58:43.867Z,47.20
2023-03-19T10:01:29.855Z,44.58
2023-03-19T10:04:18.755Z,46.85
2023-03-19T10:06:50.655Z,46.88
2023-03-19T10:09:27.268Z,46.30
2023-03-19T10:12:54.598Z,46.10
2023-03-19T10:15:34.079Z,47.15
2023-03-19T10:18:11.968Z,54.00
2023-03-19T10:21:12.483Z,50.63
2023-03-19T10:23:49.639Z,45.90
2023-03-19T10:26:20.607Z,48.38
2023-03-19T10:29:07.132Z,48.60
2023-03-19T10:31:51.876Z,51.42
2023-03-19T10:34:36.726Z,44.47
2023-03-19T10:37:08.507Z,44.08
2023-03-19T10:39:39.217Z,44.75
2023-03-19T10:42:22.888Z,47.28
2023-03-19T10:45:01.242Z,49.00
2023-03-19T10:47:29.294Z,52.03
2023-03-19T10:49:58.489Z,42.40
2023-03-19T10:52:32.426Z,48.28
2023-03-19T10:55:15.167Z,44.60
2023-03-19T10:57:53.396Z,43.03
2023-03-19T11:00:24.969Z,48.47
2023-03-19T11:02:56.618Z,43.83
2023-03-19T11:05:32.014Z,46.05
2023-03-19T11:08:05.840Z,50.20
2023-03-19T11:10:37.906Z,49.13
2023-03-19T11:13:18.378Z,41.00
2023-03-19T11:15:49.236Z,41.67
2023-03-19T11:18:25.237Z,47.38
2023-03-19T11:21:04.978Z,45.55
2023-03-19T11:26:08.027Z,44.83
2023-03-19T11:28:38.352Z,50.03
2023-03-19T11:31:06.732Z,51.58
2023-03-19T11:34:02.399Z,46.75
2023-03-19T11:36:39.745Z,48.42
2023-03-19T11:39:31.537Z,53.47
2023-03-19T11:42:20.311Z,51.63
2023-03-19T11:45:00.701Z,43.00
2023-03-19T11:47:32.764Z,46.95
2023-03-19T11:50:27.112Z,53.08
2023-03-19T11:53:11.669Z,50.45
2023-03-19T11:56:13.681Z,47.72
2023-03-19T11:59:21.430Z,50.80
2023-03-19T12:02:22.068Z,56.83
2023-03-19T12:05:20.930Z,59.47
2023-03-19T12:08:16.019Z,62.63
2023-03-19T12:11:07.572Z,54.70
2023-03-19T12:14:09.231Z,63.75
2023-03-19T12:17:16.726Z,55.88
2023-03-19T12:20:12.738Z,58.22
2023-03-19T12:22:54.712Z,57.30
2023-03-19T12:25:30.100Z,58.60
2023-03-19T12:28:16.697Z,60.63
2023-03-19T12:31:09.533Z,60.20
2023-03-19T12:33:57.978Z,67.55
2023-03-19T12:36:44.343Z,58.05
2023-03-19T12:39:23.104Z,62.92
2023-03-19T12:41:52.741Z,64.57
2023-03-19T12:44:34.860Z,61.33
2023-03-19T12:47:09.395Z,57.30
2023-03-19T12:50:01.645Z,51.65
2023-03-19T12:52:40.232Z,55.33
2023-03-19T12:55:17.869Z,53.40
2023-03-19T12:58:20.013Z,58.85
2023-03-19T13:01:00.016Z,50.88
2023-03-19T13:03:52.815Z,52.10
2023-03-19T13:06:28.632Z,61.92
2023-03-19T13:09:05.304Z,57.75
2023-03-19T13:11:54.788Z,50.22
2023-03-19T13:14:30.414Z,55.83
2023-03-19T13:17:25.957Z,51.90
2023-03-19T13:19:56.556Z,55.85
2023-03-19T13:22:33.597Z,49.92
2023-03-19T13:25:06.135Z,52.83
2023-03-19T13:27:36.791Z,53.92
2023-03-19T13:30:18.492Z,49.63
2023-03-19T13:33:07.145Z,56.05
2023-03-19T13:35:50.489Z,57.30
2023-03-19T13:38:27.643Z,49.22
2023-03-19T13:40:58.093Z,47.92
2023-03-19T13:43:29.444Z,53.38
2023-03-19T13:46:12.827Z,56.10
2023-03-19T13:48:46.784Z,57.42
2023-03-19T13:51:25.473Z,46.92
2023-03-19T13:54:01.600Z,48.33
2023-03-19T13:56:30.669Z,53.30
2023-03-19T13:59:19.972Z,48.22
2023-03-19T14:01:48.605Z,50.33
2023-03-19T14:04:37.649Z,49.60
2023-03-19T14:07:27.976Z,49.60
2023-03-19T14:10:01.304Z,51.10
2023-03-19T14:12:41.986Z,50.10
2023-03-19T14:15:10.133Z,51.85
2023-03-19T14:18:08.042Z,51.53
2023-03-19T14:21:08.827Z,43.63
2023-03-19T14:23:45.927Z,45.60
2023-03-19T14:26:29.880Z,48.97
2023-03-19T14:29:07.084Z,49.28
2023-03-19T14:31:58.625Z,49.67
2023-03-19T14:34:42.107Z,47.15
2023-03-19T14:37:25.420Z,45.65
2023-03-19T14:40:00.881Z,51.38
2023-03-19T14:42:40.260Z,50.25
2023-03-19T14:45:21.657Z,46.70
2023-03-19T14:48:08.353Z,46.42
2023-03-19T14:50:59.451Z,50.47
2023-03-19T14:53:37.735Z,47.75
2023-03-19T14:56:19.713Z,49.42
2023-03-19T14:59:04.040Z,49.67
2023-03-19T15:01:34.129Z,51.78
2023-03-19T15:04:14.887Z,44.47
2023-03-19T15:06:51.390Z,51.22
2023-03-19T15:09:33.351Z,51.38
2023-03-19T15:12:36.329Z,44.30
2023-03-19T15:15:26.055Z,52.28
2023-03-19T15:18:04.052Z,48.80
2023-03-19T15:20:43.843Z,52.08
2023-03-19T15:23:26.381Z,48.15
2023-03-19T15:26:03.712Z,49.75
2023-03-19T15:28:45.834Z,44.80
2023-03-19T15:31:31.109Z,48.58
2023-03-19T15:34:17.368Z,46.22
2023-03-19T15:36:47.956Z,58.22
2023-03-19T15:39:20.305Z,50.05
2023-03-19T15:41:53.350Z,49.28
2023-03-19T15:44:36.852Z,44.17
2023-03-19T15:47:07.780Z,47.15
2023-03-19T15:49:43.694Z,45.20
2023-03-19T15:52:16.261Z,51.05
2023-03-19T15:54:44.499Z,49.15
2023-03-19T15:57:15.458Z,46.40
2023-03-19T15:59:44.464Z,46.33
2023-03-19T16:02:28.276Z,48.03
2023-03-19T16:05:20.451Z,46.28
2023-03-19T16:07:47.117Z,43.83
2023-03-19T16:10:47.287Z,44.53
2023-03-19T16:13:31.155Z,50.78
2023-03-19T16:16:06.935Z,46.08
2023-03-19T16:18:50.831Z,46.45
2023-03-19T16:21:28.715Z,46.97
2023-03-19T16:24:19.614Z,47.13
2023-03-19T16:26:50.361Z,48.88
2023-03-19T16:29:31.784Z,49.67
2023-03-19T16:32:19.709Z,45.92
2023-03-19T16:34:51.232Z,51.95
2023-03-19T16:37:52.072Z,46.58
2023-03-19T16:40:26.750Z,45.20
2023-03-19T16:42:56.715Z,51.22
2023-03-19T16:47:59.581Z,51.85
2023-03-19T16:50:35.749Z,53.13
2023-03-19T16:53:07.715Z,51.20
2023-03-19T16:55:37.339Z,50.78
2023-03-19T16:58:30.737Z,52.17
2023-03-19T17:00:59.378Z,49.67
2023-03-19T17:03:31.518Z,49.30
2023-03-19T17:05:59.678Z,51.65
2023-03-19T17:08:27.786Z,51.85
2023-03-19T17:10:58.376Z,48.47
2023-03-19T17:13:30.135Z,49.65
2023-03-19T17:16:07.722Z,47.08
2023-03-19T17:18:38.857Z,48.13
2023-03-19T17:21:12.661Z,49.97
2023-03-19T17:23:41.232Z,50.05
2023-03-19T17:26:24.368Z,48.03
2023-03-19T17:28:53.996Z,48.58
2023-03-19T17:31:24.316Z,51.60
2023-03-19T17:33:56.017Z,51.90
2023-03-19T17:36:24.160Z,56.60
2023-03-19T17:38:54.845Z,53.67
2023-03-19T17:41:24.299Z,48.22
2023-03-19T17:43:52.569Z,47.42
2023-03-19T17:46:24.366Z,55.53
2023-03-19T17:48:52.955Z,51.15
2023-03-19T17:51:21.623Z,54.63
2023-03-19T17:53:52.262Z,54.28
2023-03-19T17:56:25.791Z,50.72
2023-03-19T17:58:54.333Z,53.95
2023-03-19T18:01:24.952Z,52.20
2023-03-19T18:03:58.452Z,54.33
2023-03-19T18:06:40.580Z,53.13
2023-03-19T18:09:13.284Z,50.40
2023-03-19T18:11:41.236Z,49.95
2023-03-19T18:14:09.176Z,54.47
2023-03-19T18:16:37.257Z,50.80
2023-03-19T18:19:11.855Z,50.75
2023-03-19T18:21:40.079Z,49.72
2023-03-19T18:24:09.817Z,49.58
2023-03-19T18:26:37.790Z,49.28
2023-03-19T18:29:05.905Z,48.05
2023-03-19T18:31:33.965Z,49.00
2023-03-19T18:34:07.367Z,55.28
2023-03-19T18:36:36.292Z,48.28
2023-03-19T18:39:04.445Z,50.33
2023-03-19T18:41:32.840Z,51.05
2023-03-19T18:44:03.628Z,47.75
2023-03-19T18:46:33.387Z,46.83
2023-03-19T18:49:26.745Z,49.28
2023-03-19T18:52:02.545Z,48.80
2023-03-19T18:54:32.469Z,48.05
2023-03-19T18:57:03.615Z,50.42
2023-03-19T18:59:34.202Z,54.80
2023-03-19T19:02:20.477Z,46.17
2023-03-19T19:04:48.810Z,48.58
2023-03-19T19:07:17.726Z,46.63
2023-03-19T19:09:46.860Z,46.95
2023-03-19T19:12:18.405Z,53.33
2023-03-19T19:14:47.146Z,51.28
2023-03-19T19:17:24.891Z,49.35
2023-03-19T19:19:52.851Z,46.20
2023-03-19T19:22:21.812Z,47.28
2023-03-19T19:24:50.615Z,48.22
2023-03-19T19:27:22.495Z,48.45
2023-03-19T19:29:51.301Z,46.28
2023-03-19T19:32:31.027Z,55.70
2023-03-19T19:34:59.148Z,46.78
2023-03-19T19:37:27.092Z,48.08
2023-03-19T19:39:55.647Z,48.72
2023-03-19T19:42:24.111Z,45.88
2023-03-19T19:44:56.215Z,47.70
2023-03-19T19:47:24.285Z,47.40
2023-03-19T19:49:52.532Z,51.55
2023-03-19T19:52:21.200Z,48.08
2023-03-19T19:54:49.341Z,50.97
2023-03-19T19:57:24.410Z,46.58
2023-03-19T19:59:53.738Z,72.13
2023-03-19T20:02:29.825Z,51.50
2023-03-19T20:04:58.740Z,51.58
2023-03-19T20:07:27.451Z,46.30
2023-03-19T20:09:56.527Z,48.65
2023-03-19T20:12:31.281Z,42.38
2023-03-19T20:15:00.149Z,38.15
2023-03-19T20:17:29.438Z,41.33
2023-03-19T20:19:58.716Z,39.25
2023-03-19T20:22:26.751Z,40.50
2023-03-19T20:24:55.658Z,38.38
2023-03-19T20:27:32.536Z,39.20
2023-03-19T20:30:00.623Z,39.15
2023-03-19T20:32:39.090Z,38.42
2023-03-19T20:35:17.665Z,38.38
2023-03-19T20:37:46.793Z,40.20
2023-03-19T20:40:18.040Z,38.65
2023-03-19T20:42:53.528Z,44.10
2023-03-19T20:45:24.904Z,41.75
2023-03-19T20:47:53.427Z,43.00
2023-03-19T20:50:30.442Z,43.85
2023-03-19T20:53:01.456Z,40.90
2023-03-19T20:55:33.045Z,40.45
2023-03-19T20:58:06.773Z,43.70
2023-03-19T21:00:55.063Z,41.30
2023-03-19T21:03:26.523Z,41.42
2023-03-19T21:06:03.385Z,46.50
2023-03-19T21:08:42.702Z,38.90
2023-03-19T21:11:19.351Z,42.70
2023-03-19T21:13:48.699Z,42.20
2023-03-19T21:16:22.286Z,45.45
2023-03-19T21:18:52.144Z,44.33
2023-03-19T21:21:27.356Z,39.33
2023-03-19T21:24:12.468Z,40.30
2023-03-19T21:26:41.758Z,42.08
2023-03-19T21:29:21.124Z,39.67
2023-03-19T21:31:49.497Z,42.80
2023-03-19T21:34:17.833Z,41.10
2023-03-19T21:36:47.870Z,40.83
2023-03-19T21:41:47.384Z,43.35
2023-03-19T21:44:20.363Z,40.08
2023-03-19T21:46:49.621Z,43.15
2023-03-19T21:49:18.710Z,46.00
2023-03-19T21:51:47.430Z,37.05
2023-03-19T21:54:15.917Z,43.17
2023-03-19T21:56:48.582Z,38.28
2023-03-19T21:59:23.113Z,39.38
2023-03-19T22:01:51.281Z,37.80
2023-03-19T22:04:19.575Z,43.70
2023-03-19T22:06:49.392Z,44.42
2023-03-19T22:09:17.424Z,47.83
2023-03-19T22:11:46.430Z,39.10
2023-03-19T22:14:28.688Z,39.22
2023-03-19T22:16:58.158Z,43.35
2023-03-19T22:19:26.432Z,44.50
2023-03-19T22:21:54.461Z,42.45
2023-03-19T22:24:22.473Z,44.75
2023-03-19T22:26:57.811Z,38.50
2023-03-19T22:29:27.047Z,49.42
2023-03-19T22:31:58.507Z,43.40
2023-03-19T22:34:28.320Z,45.45
2023-03-19T22:36:56.381Z,44.20
2023-03-19T22:39:25.552Z,40.00
2023-03-19T22:41:53.612Z,38.20
2023-03-19T22:44:28.343Z,45.40
2023-03-19T22:46:57.922Z,43.85
2023-03-19T22:49:26.693Z,39.28
2023-03-19T22:51:55.939Z,44.78
2023-03-19T22:54:24.070Z,43.27
2023-03-19T22:56:51.944Z,43.67
2023-03-19T22:59:20.567Z,40.70
2023-03-19T23:01:48.948Z,42.10
2023-03-19T23:04:26.524Z,47.72
2023-03-19T23:06:56.628Z,41.92
2023-03-19T23:11:59.665Z,44.90
2023-03-19T23:14:30.920Z,41.45
2023-03-19T23:17:03.782Z,42.03
2023-03-19T23:19:37.528Z,40.60
2023-03-19T23:22:07.810Z,41.08
2023-03-19T23:24:35.891Z,47.45
2023-03-19T23:27:04.793Z,45.05
2023-03-19T23:29:40.067Z,47.92
2023-03-19T23:32:10.383Z,42.55
2023-03-19T23:34:55.676Z,39.35
2023-03-19T23:37:26.513Z,49.45
2023-03-19T23:39:54.544Z,45.40
2023-03-19T23:42:31.863Z,44.95
2023-03-19T23:45:04.038Z,46.78
2023-03-19T23:47:32.797Z,48.47
2023-03-19T23:50:00.821Z,47.33
2023-03-19T23:52:28.872Z,49.85
2023-03-19T23:54:57.840Z,52.33
2023-03-19T23:57:27.148Z,66.63
2023-03-19T23:59:55.406Z,58.27
